CheckWX is a tool to help pilots better visualize weather data.  It is not intended as a substitute for an official pre-flight weather briefing.

22:39:03 UTC

KTPA TAF
Tampa International Airport
Tampa, Florida, USA
KTPA 192103Z 1921/2024 18016G26KT P6SM VCSH FEW025 BKN060 BKN150 FM200000 22010G15KT P6SM BKN050 BKN100 FM200300 23008KT P6SM BKN050 FM200900 23006KT P6SM SCT050 FM201500 27009KT P6SM SCT040

Oct-19@
21:00 UTC

Oct-19 @ 21:00 UTC

Oct-20@
00:00 UTC

Oct-20 @ 00:00 UTC

KTPA 192103Z 1921/2024 18016G26KT P6SM VCSH FEW025 BKN060 BKN150
Wind
  • 180° at 16 KTS
  • {Gusting to 26 KTS
Cloud Levels
  • Few at 2,500' AGL
  • Broken at 6,000' AGL
  • Broken at 15,000' AGL

Oct-20@
00:00 UTC

Oct-20 @ 00:00 UTC

Oct-20@
03:00 UTC

Oct-20 @ 03:00 UTC

FM200000 22010G15KT P6SM BKN050 BKN100

From

From Standard forecast or significant change

Wind
  • 220° at 10 KTS
  • {Gusting to 15 KTS
Cloud Levels
  • Broken at 5,000' AGL
  • Broken at 10,000' AGL

Oct-20@
03:00 UTC

Oct-20 @ 03:00 UTC

Oct-20@
09:00 UTC

Oct-20 @ 09:00 UTC

FM200300 23008KT P6SM BKN050

From

From Standard forecast or significant change

Wind
  • 230° at 8 KTS
Cloud Levels
  • Broken at 5,000' AGL

Oct-20@
09:00 UTC

Oct-20 @ 09:00 UTC

Oct-20@
15:00 UTC

Oct-20 @ 15:00 UTC

FM200900 23006KT P6SM SCT050

From

From Standard forecast or significant change

Wind
  • 230° at 6 KTS
Cloud Levels
  • Scattered at 5,000' AGL

Oct-20@
15:00 UTC

Oct-20 @ 15:00 UTC

Oct-21@
00:00 UTC

Oct-21 @ 00:00 UTC

FM201500 27009KT P6SM SCT040

From

From Standard forecast or significant change

Wind
  • 270° at 9 KTS
Cloud Levels
  • Scattered at 4,000' AGL